Terminal Aerodrome Forecast
Issued by NWS

Home | Current Version | Previous Version | Text Only | Print | Product List | Glossary On
Versions: 1 2 3 4 5 6 7 8 9 10 11 12 13 14 15 16 17 18 19 20 21 22 23 24
044
FTUS43 KDLH 210614 AAA
TAFHIB
TAF AMD
KHIB 210614Z 2106/2206 26003KT 1SM BR BKN250
      TEMPO 2107/2111 1/2SM FG
     FM211800 36004KT 3SM BR BKN008
     FM212000 01004KT 5SM BR BKN025
     FM212300 03004KT P6SM BKN015
     FM220200 04004KT 3SM BR OVC010
     FM220300 05004KT 3SM BR OVC008=

USA.gov is the U.S. government's official web portal to all federal, state and local government web resources and services.